BAW385T EBBR-EGLL
Flight info
| Callsign | BAW385T |
|---|---|
| Flight time | 0h 44m |
| Altitude | 24000 |
| Route | DCT HELEN L179 COA L608 LOGAN LOGAN2H |
| Aircraft | A320/M-SDE3FGIJ1KRWXY/SB1 |
Departure
| Time | 2026-05-07 22:15 |
|---|---|
| Airport | Brussels Airport (EBBR) |
Arrival
| Time | 2026-05-07 22:59 |
|---|---|
| Airport | London Heathrow Airport (EGLL) |
| Time | Latitude | Longitude | Altitude | Speed | Heading |
|---|---|---|---|---|---|
| 2026-05-07 20:49 | 50.90070 | 4.48740 | 131 ft | 0 kts | 155° |
| 2026-05-07 22:02 | 50.90073 | 4.48738 | 130 ft | 2 kts | 155° |
| 2026-05-07 22:03 | 50.90092 | 4.48721 | 126 ft | 3 kts | 140° |
| 2026-05-07 22:03 | 50.90107 | 4.48696 | 129 ft | 3 kts | 118° |
| 2026-05-07 22:03 | 50.90115 | 4.48663 | 123 ft | 3 kts | 104° |
| 2026-05-07 22:03 | 50.90121 | 4.48632 | 123 ft | 3 kts | 135° |
| 2026-05-07 22:04 | 50.90124 | 4.48627 | 126 ft | 3 kts | 148° |
| 2026-05-07 22:04 | 50.90127 | 4.48647 | 124 ft | 3 kts | 73° |
| 2026-05-07 22:04 | 50.90138 | 4.48677 | 127 ft | 3 kts | 57° |
| 2026-05-07 22:04 | 50.90149 | 4.48709 | 125 ft | 3 kts | 64° |
| 2026-05-07 22:05 | 50.90152 | 4.48718 | 134 ft | 1 kts | 65° |
| 2026-05-07 22:08 | 50.90153 | 4.48722 | 133 ft | 1 kts | 65° |
| 2026-05-07 22:08 | 50.90165 | 4.48763 | 124 ft | 7 kts | 65° |
| 2026-05-07 22:08 | 50.90184 | 4.48830 | 128 ft | 7 kts | 65° |
| 2026-05-07 22:08 | 50.90207 | 4.48911 | 124 ft | 9 kts | 65° |
| 2026-05-07 22:09 | 50.90235 | 4.49007 | 123 ft | 10 kts | 65° |
| 2026-05-07 22:09 | 50.90268 | 4.49121 | 124 ft | 12 kts | 65° |
| 2026-05-07 22:09 | 50.90306 | 4.49252 | 127 ft | 14 kts | 65° |
| 2026-05-07 22:09 | 50.90350 | 4.49404 | 120 ft | 15 kts | 65° |
| 2026-05-07 22:10 | 50.90387 | 4.49533 | 124 ft | 11 kts | 64° |
| 2026-05-07 22:10 | 50.90462 | 4.49595 | 123 ft | 14 kts | 14° |
| 2026-05-07 22:10 | 50.90552 | 4.49632 | 123 ft | 11 kts | 14° |
| 2026-05-07 22:10 | 50.90640 | 4.49667 | 120 ft | 15 kts | 14° |
| 2026-05-07 22:11 | 50.90750 | 4.49711 | 124 ft | 16 kts | 14° |
| 2026-05-07 22:11 | 50.90835 | 4.49746 | 123 ft | 13 kts | 14° |
| 2026-05-07 22:11 | 50.90918 | 4.49786 | 122 ft | 10 kts | 24° |
| 2026-05-07 22:11 | 50.90982 | 4.49863 | 121 ft | 12 kts | 38° |
| 2026-05-07 22:12 | 50.91032 | 4.49906 | 120 ft | 4 kts | 24° |
| 2026-05-07 22:12 | 50.91037 | 4.49910 | 120 ft | 0 kts | 24° |
| 2026-05-07 22:13 | 50.91041 | 4.49913 | 120 ft | 3 kts | 24° |
| 2026-05-07 22:13 | 50.91072 | 4.49935 | 116 ft | 7 kts | 24° |
| 2026-05-07 22:13 | 50.91127 | 4.49923 | 115 ft | 9 kts | 316° |
| 2026-05-07 22:14 | 50.91126 | 4.49842 | 119 ft | 6 kts | 247° |
| 2026-05-07 22:14 | 50.91120 | 4.49820 | 118 ft | 0 kts | 246° |
| 2026-05-07 22:14 | 50.91096 | 4.49738 | 117 ft | 35 kts | 245° |
| 2026-05-07 22:14 | 50.90896 | 4.49043 | 117 ft | 100 kts | 245° |
| 2026-05-07 22:15 | 50.90530 | 4.47779 | 121 ft | 150 kts | 245° |
| 2026-05-07 22:15 | 50.90070 | 4.46196 | 525 ft | 156 kts | 245° |
| 2026-05-07 22:15 | 50.89832 | 4.45077 | 879 ft | 161 kts | 262° |
| 2026-05-07 22:15 | 50.90012 | 4.43354 | 1366 ft | 171 kts | 301° |
| 2026-05-07 22:16 | 50.90957 | 4.42072 | 1622 ft | 192 kts | 331° |
| 2026-05-07 22:16 | 50.91996 | 4.40623 | 2011 ft | 208 kts | 309° |
| 2026-05-07 22:16 | 50.92908 | 4.38725 | 2412 ft | 227 kts | 306° |
| 2026-05-07 22:16 | 50.93931 | 4.36619 | 2820 ft | 250 kts | 313° |
| 2026-05-07 22:17 | 50.95163 | 4.34567 | 3555 ft | 260 kts | 315° |
| 2026-05-07 22:17 | 50.96439 | 4.32460 | 4386 ft | 267 kts | 314° |
| 2026-05-07 22:17 | 50.97741 | 4.30332 | 5307 ft | 271 kts | 315° |
| 2026-05-07 22:17 | 50.99059 | 4.28188 | 6233 ft | 273 kts | 314° |
| 2026-05-07 22:18 | 51.00356 | 4.26011 | 7069 ft | 277 kts | 313° |
| 2026-05-07 22:18 | 51.03036 | 4.21495 | 8759 ft | 284 kts | 313° |
| 2026-05-07 22:18 | 51.04404 | 4.19201 | 9566 ft | 288 kts | 313° |
| 2026-05-07 22:19 | 51.05792 | 4.16878 | 10341 ft | 293 kts | 313° |
| 2026-05-07 22:19 | 51.07255 | 4.14429 | 10597 ft | 317 kts | 313° |
| 2026-05-07 22:19 | 51.08821 | 4.11795 | 10867 ft | 336 kts | 313° |
| 2026-05-07 22:19 | 51.10424 | 4.09028 | 11498 ft | 343 kts | 308° |
| 2026-05-07 22:20 | 51.11584 | 4.05713 | 12192 ft | 346 kts | 293° |
| 2026-05-07 22:20 | 51.12596 | 4.02171 | 12917 ft | 349 kts | 295° |
| 2026-05-07 22:20 | 51.13635 | 3.98716 | 13613 ft | 352 kts | 295° |
| 2026-05-07 22:20 | 51.14716 | 3.95198 | 14317 ft | 355 kts | 295° |
| 2026-05-07 22:21 | 51.15822 | 3.91604 | 15009 ft | 359 kts | 295° |
| 2026-05-07 22:21 | 51.16930 | 3.88021 | 15665 ft | 362 kts | 295° |
| 2026-05-07 22:21 | 51.18052 | 3.84411 | 16303 ft | 365 kts | 296° |
| 2026-05-07 22:21 | 51.19187 | 3.80767 | 16922 ft | 368 kts | 296° |
| 2026-05-07 22:22 | 51.20330 | 3.77096 | 17529 ft | 371 kts | 296° |
| 2026-05-07 22:22 | 51.21483 | 3.73386 | 18140 ft | 374 kts | 295° |
| 2026-05-07 22:22 | 51.22638 | 3.69644 | 18744 ft | 378 kts | 296° |
| 2026-05-07 22:22 | 51.23810 | 3.65873 | 19364 ft | 381 kts | 296° |
| 2026-05-07 22:23 | 51.24990 | 3.62070 | 19991 ft | 384 kts | 296° |
| 2026-05-07 22:23 | 51.26180 | 3.58231 | 20626 ft | 387 kts | 295° |
| 2026-05-07 22:23 | 51.27373 | 3.54347 | 21231 ft | 391 kts | 295° |
| 2026-05-07 22:23 | 51.28558 | 3.50486 | 21808 ft | 394 kts | 295° |
| 2026-05-07 22:24 | 51.29781 | 3.46485 | 22370 ft | 397 kts | 295° |
| 2026-05-07 22:24 | 51.31005 | 3.42508 | 22906 ft | 400 kts | 295° |
| 2026-05-07 22:24 | 51.32230 | 3.38499 | 23431 ft | 403 kts | 295° |
| 2026-05-07 22:24 | 51.33462 | 3.34454 | 23921 ft | 407 kts | 295° |
| 2026-05-07 22:25 | 51.34702 | 3.30365 | 24090 ft | 409 kts | 295° |
| 2026-05-07 22:25 | 51.35950 | 3.26275 | 24111 ft | 409 kts | 295° |
| 2026-05-07 22:25 | 51.37204 | 3.22189 | 24109 ft | 409 kts | 295° |
| 2026-05-07 22:25 | 51.38446 | 3.18095 | 24109 ft | 409 kts | 295° |
| 2026-05-07 22:26 | 51.39688 | 3.14001 | 24109 ft | 409 kts | 295° |
| 2026-05-07 22:26 | 51.40889 | 3.09869 | 24108 ft | 409 kts | 291° |
| 2026-05-07 22:26 | 51.41902 | 3.05620 | 24110 ft | 408 kts | 290° |
| 2026-05-07 22:26 | 51.42890 | 3.01356 | 24110 ft | 408 kts | 290° |
| 2026-05-07 22:27 | 51.43891 | 2.97097 | 24109 ft | 409 kts | 290° |
| 2026-05-07 22:27 | 51.44890 | 2.92828 | 24110 ft | 409 kts | 290° |
| 2026-05-07 22:27 | 51.45887 | 2.88561 | 24110 ft | 409 kts | 290° |
| 2026-05-07 22:27 | 51.46882 | 2.84292 | 24111 ft | 409 kts | 290° |
| 2026-05-07 22:28 | 51.47871 | 2.80020 | 24113 ft | 409 kts | 289° |
| 2026-05-07 22:28 | 51.48862 | 2.75748 | 24113 ft | 409 kts | 290° |
| 2026-05-07 22:28 | 51.49852 | 2.71478 | 24114 ft | 408 kts | 290° |
| 2026-05-07 22:28 | 51.50841 | 2.67210 | 24112 ft | 408 kts | 289° |
| 2026-05-07 22:29 | 51.51815 | 2.62989 | 24113 ft | 408 kts | 290° |
| 2026-05-07 22:29 | 51.52816 | 2.58661 | 24112 ft | 408 kts | 289° |
| 2026-05-07 22:29 | 51.53795 | 2.54384 | 24111 ft | 408 kts | 289° |
| 2026-05-07 22:29 | 51.54762 | 2.50164 | 24111 ft | 408 kts | 289° |
| 2026-05-07 22:30 | 51.55747 | 2.45889 | 24112 ft | 408 kts | 289° |
| 2026-05-07 22:30 | 51.56722 | 2.41600 | 24111 ft | 408 kts | 289° |
| 2026-05-07 22:30 | 51.57699 | 2.37317 | 24111 ft | 408 kts | 289° |
| 2026-05-07 22:30 | 51.58678 | 2.33031 | 24111 ft | 408 kts | 289° |
| 2026-05-07 22:31 | 51.59657 | 2.28750 | 24112 ft | 408 kts | 289° |
| 2026-05-07 22:31 | 51.60634 | 2.24468 | 24113 ft | 408 kts | 289° |
| 2026-05-07 22:31 | 51.61604 | 2.20182 | 24113 ft | 408 kts | 289° |
| 2026-05-07 22:31 | 51.62577 | 2.15890 | 24113 ft | 408 kts | 289° |
| 2026-05-07 22:32 | 51.63544 | 2.11598 | 24112 ft | 408 kts | 289° |
| 2026-05-07 22:32 | 51.64515 | 2.07310 | 24113 ft | 408 kts | 289° |
| 2026-05-07 22:32 | 51.65476 | 2.03017 | 24112 ft | 408 kts | 289° |
| 2026-05-07 22:32 | 51.66436 | 1.98725 | 24112 ft | 408 kts | 289° |
| 2026-05-07 22:33 | 51.67397 | 1.94425 | 24111 ft | 407 kts | 289° |
| 2026-05-07 22:33 | 51.68358 | 1.90132 | 24109 ft | 407 kts | 289° |
| 2026-05-07 22:33 | 51.69312 | 1.85833 | 24109 ft | 407 kts | 289° |
| 2026-05-07 22:33 | 51.70261 | 1.81533 | 24108 ft | 408 kts | 289° |
| 2026-05-07 22:34 | 51.71221 | 1.77235 | 24107 ft | 408 kts | 289° |
| 2026-05-07 22:34 | 51.72171 | 1.72924 | 24107 ft | 408 kts | 289° |
| 2026-05-07 22:34 | 51.73112 | 1.68642 | 23984 ft | 400 kts | 289° |
| 2026-05-07 22:34 | 51.73991 | 1.64440 | 23730 ft | 391 kts | 284° |
| 2026-05-07 22:35 | 51.74452 | 1.60161 | 23480 ft | 386 kts | 273° |
| 2026-05-07 22:35 | 51.74434 | 1.55869 | 23134 ft | 382 kts | 264° |
| 2026-05-07 22:35 | 51.74164 | 1.51615 | 22639 ft | 381 kts | 263° |
| 2026-05-07 22:35 | 51.73877 | 1.47364 | 22155 ft | 380 kts | 263° |
| 2026-05-07 22:36 | 51.73602 | 1.43131 | 21670 ft | 379 kts | 264° |
| 2026-05-07 22:36 | 51.73329 | 1.38911 | 21187 ft | 378 kts | 263° |
| 2026-05-07 22:36 | 51.73057 | 1.34711 | 20707 ft | 376 kts | 263° |
| 2026-05-07 22:36 | 51.72784 | 1.30532 | 20228 ft | 374 kts | 263° |
| 2026-05-07 22:37 | 51.72513 | 1.26378 | 19747 ft | 371 kts | 263° |
| 2026-05-07 22:37 | 51.72237 | 1.22249 | 19274 ft | 369 kts | 263° |
| 2026-05-07 22:37 | 51.71963 | 1.18158 | 18799 ft | 366 kts | 263° |
| 2026-05-07 22:37 | 51.71689 | 1.14100 | 18323 ft | 363 kts | 263° |
| 2026-05-07 22:38 | 51.71410 | 1.10079 | 17865 ft | 359 kts | 263° |
| 2026-05-07 22:38 | 51.71141 | 1.06095 | 17399 ft | 356 kts | 263° |
| 2026-05-07 22:38 | 51.70871 | 1.02140 | 16939 ft | 353 kts | 263° |
| 2026-05-07 22:38 | 51.70605 | 0.98226 | 16485 ft | 350 kts | 263° |
| 2026-05-07 22:39 | 51.70338 | 0.94345 | 16033 ft | 347 kts | 263° |
| 2026-05-07 22:39 | 51.70070 | 0.90499 | 15604 ft | 344 kts | 263° |
| 2026-05-07 22:39 | 51.69802 | 0.86673 | 15170 ft | 343 kts | 263° |
| 2026-05-07 22:39 | 51.69535 | 0.82866 | 14741 ft | 341 kts | 263° |
| 2026-05-07 22:40 | 51.69268 | 0.79089 | 14316 ft | 339 kts | 263° |
| 2026-05-07 22:40 | 51.69002 | 0.75324 | 13891 ft | 337 kts | 263° |
| 2026-05-07 22:40 | 51.68743 | 0.71589 | 13469 ft | 335 kts | 263° |
| 2026-05-07 22:40 | 51.68483 | 0.67872 | 13050 ft | 333 kts | 263° |
| 2026-05-07 22:41 | 51.68220 | 0.64175 | 12635 ft | 331 kts | 263° |
| 2026-05-07 22:41 | 51.67957 | 0.60498 | 12221 ft | 330 kts | 262° |
| 2026-05-07 22:41 | 51.67691 | 0.56839 | 11808 ft | 328 kts | 262° |
| 2026-05-07 22:41 | 51.67427 | 0.53214 | 11398 ft | 325 kts | 262° |
| 2026-05-07 22:42 | 51.67166 | 0.49618 | 10984 ft | 322 kts | 263° |
| 2026-05-07 22:42 | 51.66911 | 0.46061 | 10684 ft | 316 kts | 263° |
| 2026-05-07 22:42 | 51.66659 | 0.42612 | 10539 ft | 305 kts | 262° |
| 2026-05-07 22:42 | 51.66406 | 0.39278 | 10383 ft | 295 kts | 262° |
| 2026-05-07 22:43 | 51.66157 | 0.36015 | 10092 ft | 292 kts | 262° |
| 2026-05-07 22:43 | 51.65917 | 0.32781 | 9756 ft | 290 kts | 262° |
| 2026-05-07 22:43 | 51.65678 | 0.29564 | 9419 ft | 289 kts | 263° |
| 2026-05-07 22:43 | 51.65446 | 0.26380 | 8971 ft | 286 kts | 263° |
| 2026-05-07 22:44 | 51.65198 | 0.23191 | 8653 ft | 284 kts | 263° |
| 2026-05-07 22:44 | 51.64965 | 0.20088 | 8518 ft | 275 kts | 262° |
| 2026-05-07 22:44 | 51.64736 | 0.17090 | 8391 ft | 266 kts | 263° |
| 2026-05-07 22:44 | 51.64526 | 0.14181 | 8261 ft | 258 kts | 264° |
| 2026-05-07 22:45 | 51.64374 | 0.11350 | 8133 ft | 250 kts | 264° |
| 2026-05-07 22:45 | 51.64226 | 0.08599 | 7934 ft | 244 kts | 264° |
| 2026-05-07 22:45 | 51.64082 | 0.05887 | 7656 ft | 243 kts | 264° |
| 2026-05-07 22:45 | 51.63935 | 0.03189 | 7363 ft | 242 kts | 264° |
| 2026-05-07 22:46 | 51.63789 | 0.00505 | 7145 ft | 240 kts | 264° |
| 2026-05-07 22:46 | 51.63638 | -0.02176 | 7112 ft | 241 kts | 264° |
| 2026-05-07 22:46 | 51.63500 | -0.04595 | 7100 ft | 242 kts | 264° |
| 2026-05-07 22:46 | 51.63350 | -0.07336 | 7100 ft | 243 kts | 264° |
| 2026-05-07 22:47 | 51.63203 | -0.10018 | 7099 ft | 244 kts | 264° |
| 2026-05-07 22:47 | 51.63047 | -0.12732 | 7097 ft | 243 kts | 263° |
| 2026-05-07 22:47 | 51.62889 | -0.15481 | 7099 ft | 244 kts | 264° |
| 2026-05-07 22:47 | 51.62737 | -0.18160 | 7098 ft | 244 kts | 264° |
| 2026-05-07 22:48 | 51.62581 | -0.20877 | 7097 ft | 244 kts | 263° |
| 2026-05-07 22:48 | 51.62422 | -0.23625 | 7090 ft | 243 kts | 263° |
| 2026-05-07 22:48 | 51.62262 | -0.26334 | 7090 ft | 244 kts | 263° |
| 2026-05-07 22:48 | 51.62101 | -0.29054 | 7090 ft | 244 kts | 263° |
| 2026-05-07 22:49 | 51.61944 | -0.31768 | 7088 ft | 244 kts | 264° |
| 2026-05-07 22:49 | 51.61790 | -0.34485 | 7090 ft | 244 kts | 264° |
| 2026-05-07 22:49 | 51.61632 | -0.37200 | 7088 ft | 244 kts | 263° |
| 2026-05-07 22:49 | 51.61471 | -0.39917 | 7082 ft | 244 kts | 263° |
| 2026-05-07 22:50 | 51.61311 | -0.42627 | 7080 ft | 243 kts | 263° |
| 2026-05-07 22:50 | 51.61152 | -0.45340 | 7081 ft | 244 kts | 263° |
| 2026-05-07 22:50 | 51.60989 | -0.48056 | 7085 ft | 244 kts | 263° |
| 2026-05-07 22:50 | 51.60828 | -0.50770 | 7081 ft | 244 kts | 263° |
| 2026-05-07 22:51 | 51.60663 | -0.53482 | 7080 ft | 244 kts | 263° |
| 2026-05-07 22:51 | 51.60496 | -0.56191 | 7080 ft | 244 kts | 263° |
| 2026-05-07 22:51 | 51.60332 | -0.58902 | 7081 ft | 244 kts | 263° |
| 2026-05-07 22:51 | 51.60167 | -0.61615 | 7080 ft | 244 kts | 263° |
| 2026-05-07 22:52 | 51.60001 | -0.64324 | 7081 ft | 243 kts | 263° |
| 2026-05-07 22:52 | 51.59831 | -0.67024 | 6881 ft | 242 kts | 263° |
| 2026-05-07 22:52 | 51.59663 | -0.69713 | 6576 ft | 241 kts | 263° |
| 2026-05-07 22:52 | 51.59499 | -0.72388 | 6277 ft | 240 kts | 263° |
| 2026-05-07 22:53 | 51.59332 | -0.75046 | 6110 ft | 238 kts | 262° |
| 2026-05-07 22:53 | 51.58833 | -0.77543 | 5866 ft | 234 kts | 234° |
| 2026-05-07 22:53 | 51.57640 | -0.79214 | 5349 ft | 228 kts | 202° |
| 2026-05-07 22:53 | 51.56099 | -0.79664 | 4801 ft | 227 kts | 178° |
| 2026-05-07 22:54 | 51.54518 | -0.79571 | 4240 ft | 228 kts | 177° |
| 2026-05-07 22:54 | 51.52939 | -0.79469 | 3732 ft | 227 kts | 178° |
| 2026-05-07 22:54 | 51.51895 | -0.79404 | 3415 ft | 228 kts | 178° |
| 2026-05-07 22:54 | 51.50335 | -0.79032 | 3092 ft | 227 kts | 158° |
| 2026-05-07 22:55 | 51.49047 | -0.77712 | 3014 ft | 216 kts | 135° |
| 2026-05-07 22:55 | 51.48182 | -0.75771 | 3004 ft | 215 kts | 115° |
| 2026-05-07 22:55 | 51.47669 | -0.72681 | 2949 ft | 216 kts | 95° |
| 2026-05-07 22:55 | 51.47636 | -0.71092 | 2813 ft | 213 kts | 90° |
| 2026-05-07 22:56 | 51.47651 | -0.68764 | 2540 ft | 204 kts | 90° |
| 2026-05-07 22:56 | 51.47663 | -0.66520 | 2286 ft | 198 kts | 90° |
| 2026-05-07 22:56 | 51.47673 | -0.64345 | 2044 ft | 194 kts | 90° |
| 2026-05-07 22:56 | 51.47685 | -0.62190 | 1757 ft | 191 kts | 90° |
| 2026-05-07 22:57 | 51.47697 | -0.60128 | 1513 ft | 179 kts | 90° |
| 2026-05-07 22:57 | 51.47706 | -0.58191 | 1283 ft | 169 kts | 90° |
| 2026-05-07 22:57 | 51.47714 | -0.56358 | 1065 ft | 160 kts | 90° |
| 2026-05-07 22:57 | 51.47722 | -0.54638 | 844 ft | 150 kts | 90° |
| 2026-05-07 22:58 | 51.47730 | -0.52998 | 670 ft | 145 kts | 90° |
| 2026-05-07 22:58 | 51.47737 | -0.51388 | 489 ft | 144 kts | 90° |
| 2026-05-07 22:58 | 51.47749 | -0.49790 | 302 ft | 143 kts | 90° |
| 2026-05-07 22:58 | 51.47751 | -0.48206 | 119 ft | 142 kts | 90° |
| 2026-05-07 22:59 | 51.47757 | -0.46763 | 92 ft | 102 kts | 90° |
| 2026-05-07 22:59 | 51.47759 | -0.46008 | 85 ft | 52 kts | 90° |
| 2026-05-07 22:59 | 51.47759 | -0.45566 | 85 ft | 18 kts | 95° |
| 2026-05-07 22:59 | 51.47677 | -0.45466 | 86 ft | 14 kts | 179° |
| 2026-05-07 23:00 | 51.47602 | -0.45486 | 86 ft | 7 kts | 222° |
| 2026-05-07 23:00 | 51.47596 | -0.45578 | 88 ft | 10 kts | 269° |
| 2026-05-07 23:00 | 51.47595 | -0.45714 | 88 ft | 14 kts | 270° |
| 2026-05-07 23:00 | 51.47595 | -0.45892 | 87 ft | 18 kts | 270° |
| 2026-05-07 23:01 | 51.47594 | -0.46113 | 86 ft | 21 kts | 270° |
| 2026-05-07 23:01 | 51.47593 | -0.46363 | 87 ft | 21 kts | 269° |
| 2026-05-07 23:01 | 51.47592 | -0.46581 | 86 ft | 19 kts | 269° |
| 2026-05-07 23:01 | 51.47591 | -0.46746 | 88 ft | 12 kts | 270° |
| 2026-05-07 23:02 | 51.47583 | -0.46897 | 86 ft | 15 kts | 264° |
| 2026-05-07 23:02 | 51.47582 | -0.47080 | 88 ft | 15 kts | 269° |
| 2026-05-07 23:02 | 51.47581 | -0.47239 | 90 ft | 15 kts | 270° |
| 2026-05-07 23:02 | 51.47581 | -0.47428 | 86 ft | 19 kts | 269° |
| 2026-05-07 23:03 | 51.47580 | -0.47639 | 86 ft | 16 kts | 270° |
| 2026-05-07 23:03 | 51.47580 | -0.47796 | 86 ft | 11 kts | 269° |
| 2026-05-07 23:03 | 51.47535 | -0.47874 | 86 ft | 12 kts | 184° |
| 2026-05-07 23:03 | 51.47447 | -0.47874 | 86 ft | 13 kts | 180° |
| 2026-05-07 23:04 | 51.47374 | -0.47872 | 86 ft | 9 kts | 180° |
| 2026-05-07 23:04 | 51.47323 | -0.47872 | 89 ft | 4 kts | 180° |
| 2026-05-07 23:04 | 51.47296 | -0.47872 | 86 ft | 5 kts | 179° |
| 2026-05-07 23:04 | 51.47274 | -0.47871 | 86 ft | 0 kts | 180° |
| 2026-05-07 23:05 | 51.47273 | -0.47871 | 86 ft | 1 kts | 180° |
| 2026-05-07 23:05 | 51.47261 | -0.47871 | 86 ft | 3 kts | 180° |
| 2026-05-07 23:05 | 51.47234 | -0.47871 | 86 ft | 5 kts | 180° |
| 2026-05-07 23:05 | 51.47191 | -0.47871 | 86 ft | 7 kts | 180° |
| 2026-05-07 23:06 | 51.47134 | -0.47870 | 86 ft | 9 kts | 179° |
| 2026-05-07 23:06 | 51.47090 | -0.47870 | 86 ft | 2 kts | 180° |
| 2026-05-07 23:06 | 51.47079 | -0.47870 | 86 ft | 1 kts | 180° |
| 2026-05-07 23:06 | 51.47078 | -0.47870 | 86 ft | 0 kts | 180° |
| 2026-05-07 23:07 | 51.47073 | -0.47870 | 86 ft | 2 kts | 180° |
| 2026-05-07 23:07 | 51.47052 | -0.47870 | 88 ft | 4 kts | 179° |
| 2026-05-07 23:08 | 51.47017 | -0.47869 | 86 ft | 5 kts | 179° |
| 2026-05-07 23:08 | 51.46986 | -0.47877 | 86 ft | 4 kts | 213° |
| 2026-05-07 23:08 | 51.46980 | -0.47919 | 86 ft | 4 kts | 269° |
| 2026-05-07 23:08 | 51.46980 | -0.47959 | 86 ft | 3 kts | 269° |
| 2026-05-07 23:09 | 51.46980 | -0.48003 | 86 ft | 3 kts | 270° |
| 2026-05-07 23:09 | 51.46980 | -0.48027 | 88 ft | 2 kts | 270° |
| 2026-05-07 23:09 | 51.46980 | -0.48032 | 88 ft | 0 kts | 270° |